sensor_id;sensor_type;location;lat;lon;timestamp;P1;durP1;ratioP1;P2;durP2;ratioP2
66626;SDS011;53498;50.422;14.912;2023-02-11T00:00:48;78.85;;;34.03;;
66626;SDS011;53498;50.422;14.912;2023-02-11T00:03:24;71.68;;;34.53;;
66626;SDS011;53498;50.422;14.912;2023-02-11T00:05:59;69.68;;;33.33;;
66626;SDS011;53498;50.422;14.912;2023-02-11T00:08:26;76.05;;;32.78;;
66626;SDS011;53498;50.422;14.912;2023-02-11T00:10:52;68.35;;;34.28;;
66626;SDS011;53498;50.422;14.912;2023-02-11T00:13:19;76.38;;;35.10;;
66626;SDS011;53498;50.422;14.912;2023-02-11T00:15:46;68.20;;;33.65;;
66626;SDS011;53498;50.422;14.912;2023-02-11T00:18:11;71.53;;;34.63;;
66626;SDS011;53498;50.422;14.912;2023-02-11T00:20:37;70.80;;;34.05;;
66626;SDS011;53498;50.422;14.912;2023-02-11T00:23:04;67.40;;;34.97;;
66626;SDS011;53498;50.422;14.912;2023-02-11T00:25:29;65.07;;;31.83;;
66626;SDS011;53498;50.422;14.912;2023-02-11T00:27:55;81.20;;;34.10;;
66626;SDS011;53498;50.422;14.912;2023-02-11T00:30:21;81.88;;;34.00;;
66626;SDS011;53498;50.422;14.912;2023-02-11T00:32:47;67.82;;;33.50;;
66626;SDS011;53498;50.422;14.912;2023-02-11T00:35:12;63.67;;;32.55;;
66626;SDS011;53498;50.422;14.912;2023-02-11T00:37:38;74.95;;;36.10;;
66626;SDS011;53498;50.422;14.912;2023-02-11T00:40:03;67.10;;;32.90;;
66626;SDS011;53498;50.422;14.912;2023-02-11T00:42:30;70.63;;;31.48;;
66626;SDS011;53498;50.422;14.912;2023-02-11T00:44:55;70.07;;;32.55;;
66626;SDS011;53498;50.422;14.912;2023-02-11T00:47:21;55.63;;;29.52;;
66626;SDS011;53498;50.422;14.912;2023-02-11T00:49:46;67.47;;;32.22;;
66626;SDS011;53498;50.422;14.912;2023-02-11T00:52:12;58.72;;;30.67;;
66626;SDS011;53498;50.422;14.912;2023-02-11T00:54:37;61.90;;;30.95;;
66626;SDS011;53498;50.422;14.912;2023-02-11T00:57:04;67.40;;;30.60;;
66626;SDS011;53498;50.422;14.912;2023-02-11T00:59:30;59.67;;;29.05;;
66626;SDS011;53498;50.422;14.912;2023-02-11T01:01:55;58.30;;;27.65;;
66626;SDS011;53498;50.422;14.912;2023-02-11T01:04:21;60.60;;;29.50;;
66626;SDS011;53498;50.422;14.912;2023-02-11T01:06:47;59.45;;;31.25;;
66626;SDS011;53498;50.422;14.912;2023-02-11T01:09:13;61.40;;;30.50;;
66626;SDS011;53498;50.422;14.912;2023-02-11T01:11:38;55.88;;;26.35;;
66626;SDS011;53498;50.422;14.912;2023-02-11T01:14:04;53.13;;;28.48;;
66626;SDS011;53498;50.422;14.912;2023-02-11T01:16:30;58.55;;;28.00;;
66626;SDS011;53498;50.422;14.912;2023-02-11T01:18:55;56.22;;;26.40;;
66626;SDS011;53498;50.422;14.912;2023-02-11T01:21:21;54.97;;;27.25;;
66626;SDS011;53498;50.422;14.912;2023-02-11T01:23:46;52.75;;;28.80;;
66626;SDS011;53498;50.422;14.912;2023-02-11T01:26:12;47.75;;;25.27;;
66626;SDS011;53498;50.422;14.912;2023-02-11T01:28:37;58.83;;;28.02;;
66626;SDS011;53498;50.422;14.912;2023-02-11T01:31:04;50.42;;;26.25;;
66626;SDS011;53498;50.422;14.912;2023-02-11T01:33:29;62.33;;;30.20;;
66626;SDS011;53498;50.422;14.912;2023-02-11T01:35:58;58.38;;;29.05;;
66626;SDS011;53498;50.422;14.912;2023-02-11T01:38:25;57.70;;;26.95;;
66626;SDS011;53498;50.422;14.912;2023-02-11T01:40:55;57.13;;;29.40;;
66626;SDS011;53498;50.422;14.912;2023-02-11T01:43:22;60.92;;;28.38;;
66626;SDS011;53498;50.422;14.912;2023-02-11T01:45:56;53.83;;;26.10;;
66626;SDS011;53498;50.422;14.912;2023-02-11T01:48:37;53.13;;;26.92;;
66626;SDS011;53498;50.422;14.912;2023-02-11T01:51:10;57.22;;;28.45;;
66626;SDS011;53498;50.422;14.912;2023-02-11T01:53:40;62.58;;;29.75;;
66626;SDS011;53498;50.422;14.912;2023-02-11T01:56:26;53.03;;;26.88;;
66626;SDS011;53498;50.422;14.912;2023-02-11T01:59:20;58.78;;;27.27;;
66626;SDS011;53498;50.422;14.912;2023-02-11T02:01:50;57.13;;;28.23;;
66626;SDS011;53498;50.422;14.912;2023-02-11T02:04:21;61.15;;;28.90;;
66626;SDS011;53498;50.422;14.912;2023-02-11T02:06:55;57.83;;;27.70;;
66626;SDS011;53498;50.422;14.912;2023-02-11T02:09:27;58.53;;;27.10;;
66626;SDS011;53498;50.422;14.912;2023-02-11T02:11:56;57.40;;;28.50;;
66626;SDS011;53498;50.422;14.912;2023-02-11T02:14:21;61.05;;;26.75;;
66626;SDS011;53498;50.422;14.912;2023-02-11T02:16:47;55.25;;;27.48;;
66626;SDS011;53498;50.422;14.912;2023-02-11T02:24:48;55.85;;;28.13;;
66626;SDS011;53498;50.422;14.912;2023-02-11T02:27:45;58.78;;;27.85;;
66626;SDS011;53498;50.422;14.912;2023-02-11T02:35:39;50.80;;;24.60;;
66626;SDS011;53498;50.422;14.912;2023-02-11T02:38:12;53.17;;;26.90;;
66626;SDS011;53498;50.422;14.912;2023-02-11T02:40:48;53.42;;;24.05;;
66626;SDS011;53498;50.422;14.912;2023-02-11T02:43:25;49.65;;;23.95;;
66626;SDS011;53498;50.422;14.912;2023-02-11T02:45:52;49.70;;;24.40;;
66626;SDS011;53498;50.422;14.912;2023-02-11T02:48:25;53.85;;;25.33;;
66626;SDS011;53498;50.422;14.912;2023-02-11T02:56:53;51.53;;;25.75;;
66626;SDS011;53498;50.422;14.912;2023-02-11T03:02:14;55.63;;;25.85;;
66626;SDS011;53498;50.422;14.912;2023-02-11T03:10:21;58.13;;;27.70;;
66626;SDS011;53498;50.422;14.912;2023-02-11T03:12:51;56.00;;;27.42;;
66626;SDS011;53498;50.422;14.912;2023-02-11T03:15:19;62.38;;;28.02;;
66626;SDS011;53498;50.422;14.912;2023-02-11T03:17:47;59.75;;;29.90;;
66626;SDS011;53498;50.422;14.912;2023-02-11T03:20:16;59.80;;;27.50;;
66626;SDS011;53498;50.422;14.912;2023-02-11T03:22:47;56.55;;;28.58;;
66626;SDS011;53498;50.422;14.912;2023-02-11T03:25:17;58.65;;;30.67;;
66626;SDS011;53498;50.422;14.912;2023-02-11T03:27:50;64.40;;;32.30;;
66626;SDS011;53498;50.422;14.912;2023-02-11T03:33:00;65.65;;;29.58;;
66626;SDS011;53498;50.422;14.912;2023-02-11T03:35:31;62.22;;;29.92;;
66626;SDS011;53498;50.422;14.912;2023-02-11T03:38:22;65.65;;;32.33;;
66626;SDS011;53498;50.422;14.912;2023-02-11T03:40:54;65.15;;;30.42;;
66626;SDS011;53498;50.422;14.912;2023-02-11T03:43:25;58.08;;;29.20;;
66626;SDS011;53498;50.422;14.912;2023-02-11T03:45:58;65.00;;;31.08;;
66626;SDS011;53498;50.422;14.912;2023-02-11T03:48:29;60.40;;;29.05;;
66626;SDS011;53498;50.422;14.912;2023-02-11T03:51:00;64.05;;;30.33;;
66626;SDS011;53498;50.422;14.912;2023-02-11T03:53:29;62.65;;;29.35;;
66626;SDS011;53498;50.422;14.912;2023-02-11T03:55:55;62.63;;;30.42;;
66626;SDS011;53498;50.422;14.912;2023-02-11T03:58:26;61.92;;;31.10;;
66626;SDS011;53498;50.422;14.912;2023-02-11T04:00:52;60.33;;;30.02;;
66626;SDS011;53498;50.422;14.912;2023-02-11T04:03:18;70.20;;;30.95;;
66626;SDS011;53498;50.422;14.912;2023-02-11T04:05:43;58.65;;;26.88;;
66626;SDS011;53498;50.422;14.912;2023-02-11T04:08:09;58.42;;;30.60;;
66626;SDS011;53498;50.422;14.912;2023-02-11T04:10:35;62.65;;;29.90;;
66626;SDS011;53498;50.422;14.912;2023-02-11T04:13:00;62.05;;;29.25;;
66626;SDS011;53498;50.422;14.912;2023-02-11T04:15:26;64.50;;;29.67;;
66626;SDS011;53498;50.422;14.912;2023-02-11T04:17:51;59.67;;;29.63;;
66626;SDS011;53498;50.422;14.912;2023-02-11T04:20:17;52.17;;;26.15;;
66626;SDS011;53498;50.422;14.912;2023-02-11T04:22:43;64.53;;;27.55;;
66626;SDS011;53498;50.422;14.912;2023-02-11T04:25:09;59.85;;;28.63;;
66626;SDS011;53498;50.422;14.912;2023-02-11T04:27:34;63.15;;;29.30;;
66626;SDS011;53498;50.422;14.912;2023-02-11T04:30:01;59.15;;;27.50;;
66626;SDS011;53498;50.422;14.912;2023-02-11T04:32:27;59.85;;;27.52;;
66626;SDS011;53498;50.422;14.912;2023-02-11T04:34:53;59.05;;;27.92;;
66626;SDS011;53498;50.422;14.912;2023-02-11T04:37:19;56.35;;;26.60;;
66626;SDS011;53498;50.422;14.912;2023-02-11T04:39:45;57.30;;;29.15;;
66626;SDS011;53498;50.422;14.912;2023-02-11T04:42:10;58.97;;;27.33;;
66626;SDS011;53498;50.422;14.912;2023-02-11T04:44:36;51.58;;;26.35;;
66626;SDS011;53498;50.422;14.912;2023-02-11T04:47:02;54.53;;;27.60;;
66626;SDS011;53498;50.422;14.912;2023-02-11T04:49:27;50.00;;;26.25;;
66626;SDS011;53498;50.422;14.912;2023-02-11T04:51:53;53.97;;;27.40;;
66626;SDS011;53498;50.422;14.912;2023-02-11T04:54:19;59.92;;;26.95;;
66626;SDS011;53498;50.422;14.912;2023-02-11T04:56:44;47.47;;;26.17;;
66626;SDS011;53498;50.422;14.912;2023-02-11T04:59:10;57.88;;;26.75;;
66626;SDS011;53498;50.422;14.912;2023-02-11T05:01:37;62.97;;;28.63;;
66626;SDS011;53498;50.422;14.912;2023-02-11T05:04:03;53.45;;;27.45;;
66626;SDS011;53498;50.422;14.912;2023-02-11T05:06:29;60.10;;;28.10;;
66626;SDS011;53498;50.422;14.912;2023-02-11T05:08:55;52.80;;;25.90;;
66626;SDS011;53498;50.422;14.912;2023-02-11T05:11:21;54.58;;;27.58;;
66626;SDS011;53498;50.422;14.912;2023-02-11T05:13:48;54.22;;;26.63;;
66626;SDS011;53498;50.422;14.912;2023-02-11T05:16:14;54.30;;;27.35;;
66626;SDS011;53498;50.422;14.912;2023-02-11T05:18:41;52.92;;;26.33;;
66626;SDS011;53498;50.422;14.912;2023-02-11T05:21:07;56.72;;;27.45;;
66626;SDS011;53498;50.422;14.912;2023-02-11T05:23:34;62.10;;;29.08;;
66626;SDS011;53498;50.422;14.912;2023-02-11T05:26:01;58.97;;;28.85;;
66626;SDS011;53498;50.422;14.912;2023-02-11T05:28:27;57.83;;;28.63;;
66626;SDS011;53498;50.422;14.912;2023-02-11T05:30:53;62.03;;;28.38;;
66626;SDS011;53498;50.422;14.912;2023-02-11T05:33:18;54.53;;;27.15;;
66626;SDS011;53498;50.422;14.912;2023-02-11T05:35:44;67.32;;;28.45;;
66626;SDS011;53498;50.422;14.912;2023-02-11T05:38:10;59.72;;;27.23;;
66626;SDS011;53498;50.422;14.912;2023-02-11T05:40:35;57.63;;;26.70;;
66626;SDS011;53498;50.422;14.912;2023-02-11T05:43:01;60.60;;;28.30;;
66626;SDS011;53498;50.422;14.912;2023-02-11T05:45:27;51.08;;;25.90;;
66626;SDS011;53498;50.422;14.912;2023-02-11T05:47:52;56.63;;;26.80;;
66626;SDS011;53498;50.422;14.912;2023-02-11T05:50:18;52.17;;;25.92;;
66626;SDS011;53498;50.422;14.912;2023-02-11T05:52:44;54.40;;;27.40;;
66626;SDS011;53498;50.422;14.912;2023-02-11T05:55:09;59.53;;;30.13;;
66626;SDS011;53498;50.422;14.912;2023-02-11T05:57:35;61.47;;;28.83;;
66626;SDS011;53498;50.422;14.912;2023-02-11T06:00:01;59.95;;;28.80;;
66626;SDS011;53498;50.422;14.912;2023-02-11T06:02:28;61.60;;;29.10;;
66626;SDS011;53498;50.422;14.912;2023-02-11T06:04:54;58.70;;;30.83;;
66626;SDS011;53498;50.422;14.912;2023-02-11T06:07:19;56.53;;;27.73;;
66626;SDS011;53498;50.422;14.912;2023-02-11T06:09:45;65.40;;;30.63;;
66626;SDS011;53498;50.422;14.912;2023-02-11T06:12:10;67.05;;;30.10;;
66626;SDS011;53498;50.422;14.912;2023-02-11T06:14:36;56.33;;;28.92;;
66626;SDS011;53498;50.422;14.912;2023-02-11T06:17:01;56.92;;;28.70;;
66626;SDS011;53498;50.422;14.912;2023-02-11T06:19:28;63.42;;;29.42;;
66626;SDS011;53498;50.422;14.912;2023-02-11T06:21:54;62.67;;;31.02;;
66626;SDS011;53498;50.422;14.912;2023-02-11T06:24:20;64.93;;;32.00;;
66626;SDS011;53498;50.422;14.912;2023-02-11T06:26:45;59.47;;;31.75;;
66626;SDS011;53498;50.422;14.912;2023-02-11T06:29:11;62.97;;;31.90;;
66626;SDS011;53498;50.422;14.912;2023-02-11T06:31:37;59.97;;;30.35;;
66626;SDS011;53498;50.422;14.912;2023-02-11T06:34:03;68.22;;;31.80;;
66626;SDS011;53498;50.422;14.912;2023-02-11T06:36:29;64.47;;;30.70;;
66626;SDS011;53498;50.422;14.912;2023-02-11T06:38:57;62.15;;;29.17;;
66626;SDS011;53498;50.422;14.912;2023-02-11T06:41:23;60.28;;;30.05;;
66626;SDS011;53498;50.422;14.912;2023-02-11T06:43:49;59.25;;;29.73;;
66626;SDS011;53498;50.422;14.912;2023-02-11T06:46:16;69.25;;;32.67;;
66626;SDS011;53498;50.422;14.912;2023-02-11T06:48:41;58.22;;;27.20;;
66626;SDS011;53498;50.422;14.912;2023-02-11T06:51:09;58.88;;;29.70;;
66626;SDS011;53498;50.422;14.912;2023-02-11T06:53:38;59.50;;;28.48;;
66626;SDS011;53498;50.422;14.912;2023-02-11T06:56:07;67.60;;;28.55;;
66626;SDS011;53498;50.422;14.912;2023-02-11T06:58:34;60.25;;;28.35;;
66626;SDS011;53498;50.422;14.912;2023-02-11T07:01:04;55.83;;;29.65;;
66626;SDS011;53498;50.422;14.912;2023-02-11T07:03:32;59.67;;;29.45;;
66626;SDS011;53498;50.422;14.912;2023-02-11T07:06:07;61.17;;;31.55;;
66626;SDS011;53498;50.422;14.912;2023-02-11T07:08:37;54.22;;;28.13;;
66626;SDS011;53498;50.422;14.912;2023-02-11T07:11:10;64.43;;;30.25;;
66626;SDS011;53498;50.422;14.912;2023-02-11T07:13:37;62.58;;;29.77;;
66626;SDS011;53498;50.422;14.912;2023-02-11T07:16:05;54.40;;;27.00;;
66626;SDS011;53498;50.422;14.912;2023-02-11T07:18:31;48.30;;;24.92;;
66626;SDS011;53498;50.422;14.912;2023-02-11T07:20:57;62.67;;;27.77;;
66626;SDS011;53498;50.422;14.912;2023-02-11T07:23:23;55.08;;;24.83;;
66626;SDS011;53498;50.422;14.912;2023-02-11T07:25:48;63.50;;;27.80;;
66626;SDS011;53498;50.422;14.912;2023-02-11T07:28:14;51.97;;;27.15;;
66626;SDS011;53498;50.422;14.912;2023-02-11T07:30:39;54.78;;;27.73;;
66626;SDS011;53498;50.422;14.912;2023-02-11T07:33:05;58.13;;;28.65;;
66626;SDS011;53498;50.422;14.912;2023-02-11T07:35:31;59.78;;;29.92;;
66626;SDS011;53498;50.422;14.912;2023-02-11T07:37:56;56.92;;;28.00;;
66626;SDS011;53498;50.422;14.912;2023-02-11T07:40:22;55.90;;;29.17;;
66626;SDS011;53498;50.422;14.912;2023-02-11T07:42:47;56.65;;;27.02;;
66626;SDS011;53498;50.422;14.912;2023-02-11T07:45:13;58.30;;;27.90;;
66626;SDS011;53498;50.422;14.912;2023-02-11T07:47:38;60.22;;;28.58;;
66626;SDS011;53498;50.422;14.912;2023-02-11T07:50:04;55.97;;;25.85;;
66626;SDS011;53498;50.422;14.912;2023-02-11T07:52:31;58.40;;;26.80;;
66626;SDS011;53498;50.422;14.912;2023-02-11T07:54:56;54.17;;;29.17;;
66626;SDS011;53498;50.422;14.912;2023-02-11T07:57:22;57.83;;;27.95;;
66626;SDS011;53498;50.422;14.912;2023-02-11T07:59:48;54.72;;;27.20;;
66626;SDS011;53498;50.422;14.912;2023-02-11T08:02:13;54.97;;;26.17;;
66626;SDS011;53498;50.422;14.912;2023-02-11T08:04:39;51.88;;;26.42;;
66626;SDS011;53498;50.422;14.912;2023-02-11T08:07:04;52.35;;;26.35;;
66626;SDS011;53498;50.422;14.912;2023-02-11T08:09:31;56.20;;;26.92;;
66626;SDS011;53498;50.422;14.912;2023-02-11T08:11:56;56.92;;;26.67;;
66626;SDS011;53498;50.422;14.912;2023-02-11T08:14:22;52.33;;;27.73;;
66626;SDS011;53498;50.422;14.912;2023-02-11T08:16:49;51.33;;;25.40;;
66626;SDS011;53498;50.422;14.912;2023-02-11T08:19:15;57.47;;;26.98;;
66626;SDS011;53498;50.422;14.912;2023-02-11T08:21:41;50.83;;;26.73;;
66626;SDS011;53498;50.422;14.912;2023-02-11T08:24:08;62.33;;;28.05;;
66626;SDS011;53498;50.422;14.912;2023-02-11T08:26:34;53.47;;;25.98;;
66626;SDS011;53498;50.422;14.912;2023-02-11T08:29:02;54.08;;;26.50;;
66626;SDS011;53498;50.422;14.912;2023-02-11T08:31:32;61.38;;;28.33;;
66626;SDS011;53498;50.422;14.912;2023-02-11T08:33:59;64.70;;;32.45;;
66626;SDS011;53498;50.422;14.912;2023-02-11T08:36:30;67.38;;;30.58;;
66626;SDS011;53498;50.422;14.912;2023-02-11T08:41:29;52.17;;;30.42;;
66626;SDS011;53498;50.422;14.912;2023-02-11T08:43:56;52.08;;;29.30;;
66626;SDS011;53498;50.422;14.912;2023-02-11T08:46:22;59.10;;;29.38;;
66626;SDS011;53498;50.422;14.912;2023-02-11T08:48:48;58.55;;;28.83;;
66626;SDS011;53498;50.422;14.912;2023-02-11T08:51:15;56.83;;;27.40;;
66626;SDS011;53498;50.422;14.912;2023-02-11T08:53:42;52.85;;;25.58;;
66626;SDS011;53498;50.422;14.912;2023-02-11T08:56:09;46.53;;;25.42;;
66626;SDS011;53498;50.422;14.912;2023-02-11T08:58:35;53.83;;;27.15;;
66626;SDS011;53498;50.422;14.912;2023-02-11T09:01:00;51.60;;;27.33;;
66626;SDS011;53498;50.422;14.912;2023-02-11T09:03:26;45.78;;;26.75;;
66626;SDS011;53498;50.422;14.912;2023-02-11T09:05:52;52.20;;;27.85;;
66626;SDS011;53498;50.422;14.912;2023-02-11T09:08:21;50.55;;;26.65;;
66626;SDS011;53498;50.422;14.912;2023-02-11T09:10:47;49.58;;;24.83;;
66626;SDS011;53498;50.422;14.912;2023-02-11T09:13:12;52.05;;;27.17;;
66626;SDS011;53498;50.422;14.912;2023-02-11T09:15:38;47.92;;;26.38;;
66626;SDS011;53498;50.422;14.912;2023-02-11T09:18:04;43.00;;;23.85;;
66626;SDS011;53498;50.422;14.912;2023-02-11T09:20:30;42.72;;;23.45;;
66626;SDS011;53498;50.422;14.912;2023-02-11T09:22:56;40.35;;;21.42;;
66626;SDS011;53498;50.422;14.912;2023-02-11T09:25:23;43.08;;;22.85;;
66626;SDS011;53498;50.422;14.912;2023-02-11T09:27:49;45.95;;;21.40;;
66626;SDS011;53498;50.422;14.912;2023-02-11T09:30:16;40.70;;;22.38;;
66626;SDS011;53498;50.422;14.912;2023-02-11T09:32:42;36.45;;;20.88;;
66626;SDS011;53498;50.422;14.912;2023-02-11T09:35:07;42.15;;;22.70;;
66626;SDS011;53498;50.422;14.912;2023-02-11T09:37:33;43.17;;;22.20;;
66626;SDS011;53498;50.422;14.912;2023-02-11T09:39:58;43.10;;;21.55;;
66626;SDS011;53498;50.422;14.912;2023-02-11T09:45:32;41.28;;;21.92;;
66626;SDS011;53498;50.422;14.912;2023-02-11T09:48:03;46.95;;;22.33;;
66626;SDS011;53498;50.422;14.912;2023-02-11T09:50:38;43.10;;;21.75;;
66626;SDS011;53498;50.422;14.912;2023-02-11T09:53:23;41.25;;;20.63;;
66626;SDS011;53498;50.422;14.912;2023-02-11T09:55:51;43.10;;;22.05;;
66626;SDS011;53498;50.422;14.912;2023-02-11T10:06:28;37.10;;;19.05;;
66626;SDS011;53498;50.422;14.912;2023-02-11T10:22:22;30.92;;;15.13;;
66626;SDS011;53498;50.422;14.912;2023-02-11T10:24:57;30.05;;;15.27;;
66626;SDS011;53498;50.422;14.912;2023-02-11T10:27:27;32.42;;;16.13;;
66626;SDS011;53498;50.422;14.912;2023-02-11T10:30:00;27.65;;;15.82;;
66626;SDS011;53498;50.422;14.912;2023-02-11T10:32:34;32.08;;;15.95;;
66626;SDS011;53498;50.422;14.912;2023-02-11T10:35:13;29.50;;;15.45;;
66626;SDS011;53498;50.422;14.912;2023-02-11T10:37:42;28.15;;;16.92;;
66626;SDS011;53498;50.422;14.912;2023-02-11T10:40:18;32.47;;;16.88;;
66626;SDS011;53498;50.422;14.912;2023-02-11T10:42:53;25.83;;;15.88;;
66626;SDS011;53498;50.422;14.912;2023-02-11T10:45:29;29.30;;;15.23;;
66626;SDS011;53498;50.422;14.912;2023-02-11T10:47:59;29.48;;;15.23;;
66626;SDS011;53498;50.422;14.912;2023-02-11T10:50:27;28.20;;;15.50;;
66626;SDS011;53498;50.422;14.912;2023-02-11T10:53:09;31.67;;;16.25;;
66626;SDS011;53498;50.422;14.912;2023-02-11T10:55:37;28.08;;;15.52;;
66626;SDS011;53498;50.422;14.912;2023-02-11T10:58:03;30.52;;;15.07;;
66626;SDS011;53498;50.422;14.912;2023-02-11T11:00:39;26.98;;;14.43;;
66626;SDS011;53498;50.422;14.912;2023-02-11T11:03:17;31.60;;;16.23;;
66626;SDS011;53498;50.422;14.912;2023-02-11T11:05:46;29.23;;;15.25;;
66626;SDS011;53498;50.422;14.912;2023-02-11T11:08:16;30.20;;;14.50;;
66626;SDS011;53498;50.422;14.912;2023-02-11T11:10:44;31.23;;;14.20;;
66626;SDS011;53498;50.422;14.912;2023-02-11T11:13:22;23.60;;;13.63;;
66626;SDS011;53498;50.422;14.912;2023-02-11T11:18:37;29.73;;;14.68;;
66626;SDS011;53498;50.422;14.912;2023-02-11T11:23:55;28.92;;;14.73;;
66626;SDS011;53498;50.422;14.912;2023-02-11T11:26:24;26.23;;;14.40;;
66626;SDS011;53498;50.422;14.912;2023-02-11T11:29:08;27.48;;;14.88;;
66626;SDS011;53498;50.422;14.912;2023-02-11T11:31:51;28.02;;;14.88;;
66626;SDS011;53498;50.422;14.912;2023-02-11T11:34:33;29.05;;;15.18;;
66626;SDS011;53498;50.422;14.912;2023-02-11T11:37:19;30.83;;;14.50;;
66626;SDS011;53498;50.422;14.912;2023-02-11T11:40:35;32.70;;;15.38;;
66626;SDS011;53498;50.422;14.912;2023-02-11T11:42:46;30.08;;;14.68;;
66626;SDS011;53498;50.422;14.912;2023-02-11T11:45:36;26.80;;;15.38;;
66626;SDS011;53498;50.422;14.912;2023-02-11T11:48:05;23.08;;;13.55;;
66626;SDS011;53498;50.422;14.912;2023-02-11T11:56:10;29.98;;;14.77;;
66626;SDS011;53498;50.422;14.912;2023-02-11T11:58:38;29.52;;;14.93;;
66626;SDS011;53498;50.422;14.912;2023-02-11T12:06:33;27.63;;;13.57;;
66626;SDS011;53498;50.422;14.912;2023-02-11T12:17:40;28.02;;;14.27;;
66626;SDS011;53498;50.422;14.912;2023-02-11T12:39:37;24.92;;;12.45;;
66626;SDS011;53498;50.422;14.912;2023-02-11T12:45:27;23.42;;;12.00;;
66626;SDS011;53498;50.422;14.912;2023-02-11T12:50:59;24.50;;;11.35;;
66626;SDS011;53498;50.422;14.912;2023-02-11T12:56:36;24.10;;;12.50;;
66626;SDS011;53498;50.422;14.912;2023-02-11T12:59:06;25.23;;;13.23;;
66626;SDS011;53498;50.422;14.912;2023-02-11T13:01:39;22.80;;;12.82;;
66626;SDS011;53498;50.422;14.912;2023-02-11T13:06:54;21.40;;;11.77;;
66626;SDS011;53498;50.422;14.912;2023-02-11T13:09:25;25.40;;;12.80;;
66626;SDS011;53498;50.422;14.912;2023-02-11T13:11:57;21.38;;;11.90;;
66626;SDS011;53498;50.422;14.912;2023-02-11T13:14:47;19.33;;;12.07;;
66626;SDS011;53498;50.422;14.912;2023-02-11T13:17:18;25.23;;;13.30;;
66626;SDS011;53498;50.422;14.912;2023-02-11T13:19:51;25.67;;;12.83;;
66626;SDS011;53498;50.422;14.912;2023-02-11T13:22:40;23.27;;;12.85;;
66626;SDS011;53498;50.422;14.912;2023-02-11T13:30:38;27.38;;;13.52;;
66626;SDS011;53498;50.422;14.912;2023-02-11T13:35:41;25.33;;;12.98;;
66626;SDS011;53498;50.422;14.912;2023-02-11T13:38:27;20.50;;;11.45;;
66626;SDS011;53498;50.422;14.912;2023-02-11T13:43:26;22.17;;;12.45;;
66626;SDS011;53498;50.422;14.912;2023-02-11T13:45:56;23.25;;;12.20;;
66626;SDS011;53498;50.422;14.912;2023-02-11T13:48:25;20.20;;;10.60;;
66626;SDS011;53498;50.422;14.912;2023-02-11T13:50:56;23.02;;;11.20;;
66626;SDS011;53498;50.422;14.912;2023-02-11T13:53:24;21.00;;;11.25;;
66626;SDS011;53498;50.422;14.912;2023-02-11T13:55:53;21.35;;;11.25;;
66626;SDS011;53498;50.422;14.912;2023-02-11T14:00:55;18.20;;;10.68;;
66626;SDS011;53498;50.422;14.912;2023-02-11T14:03:25;21.23;;;11.07;;
66626;SDS011;53498;50.422;14.912;2023-02-11T14:06:19;20.10;;;11.13;;
66626;SDS011;53498;50.422;14.912;2023-02-11T14:09:09;19.42;;;11.57;;
66626;SDS011;53498;50.422;14.912;2023-02-11T14:15:00;19.80;;;10.40;;
66626;SDS011;53498;50.422;14.912;2023-02-11T14:17:42;21.10;;;11.55;;
66626;SDS011;53498;50.422;14.912;2023-02-11T14:22:57;19.42;;;10.75;;
66626;SDS011;53498;50.422;14.912;2023-02-11T14:25:24;20.45;;;11.07;;
66626;SDS011;53498;50.422;14.912;2023-02-11T14:38:59;17.92;;;10.52;;
66626;SDS011;53498;50.422;14.912;2023-02-11T14:41:43;20.02;;;12.10;;
66626;SDS011;53498;50.422;14.912;2023-02-11T14:44:13;19.80;;;11.98;;
66626;SDS011;53498;50.422;14.912;2023-02-11T14:46:52;21.33;;;12.95;;
66626;SDS011;53498;50.422;14.912;2023-02-11T14:49:21;16.83;;;10.32;;
66626;SDS011;53498;50.422;14.912;2023-02-11T14:51:52;21.08;;;11.63;;
66626;SDS011;53498;50.422;14.912;2023-02-11T14:54:21;21.48;;;11.57;;
66626;SDS011;53498;50.422;14.912;2023-02-11T14:59:59;22.05;;;11.90;;
66626;SDS011;53498;50.422;14.912;2023-02-11T15:02:47;23.15;;;13.38;;
66626;SDS011;53498;50.422;14.912;2023-02-11T15:07:47;23.25;;;12.52;;
66626;SDS011;53498;50.422;14.912;2023-02-11T15:10:49;27.23;;;13.32;;
66626;SDS011;53498;50.422;14.912;2023-02-11T15:13:13;26.67;;;13.88;;
66626;SDS011;53498;50.422;14.912;2023-02-11T15:15:44;26.17;;;14.00;;
66626;SDS011;53498;50.422;14.912;2023-02-11T15:18:16;22.02;;;13.50;;
66626;SDS011;53498;50.422;14.912;2023-02-11T15:20:47;24.95;;;14.18;;
66626;SDS011;53498;50.422;14.912;2023-02-11T15:23:17;25.83;;;13.10;;
66626;SDS011;53498;50.422;14.912;2023-02-11T15:25:48;25.58;;;12.68;;
66626;SDS011;53498;50.422;14.912;2023-02-11T15:28:24;23.98;;;11.90;;
66626;SDS011;53498;50.422;14.912;2023-02-11T15:33:40;21.90;;;10.90;;
66626;SDS011;53498;50.422;14.912;2023-02-11T15:36:08;18.52;;;10.50;;
66626;SDS011;53498;50.422;14.912;2023-02-11T15:38:35;20.08;;;11.00;;
66626;SDS011;53498;50.422;14.912;2023-02-11T15:41:02;19.83;;;10.77;;
66626;SDS011;53498;50.422;14.912;2023-02-11T15:43:47;22.63;;;13.02;;
66626;SDS011;53498;50.422;14.912;2023-02-11T15:46:18;27.08;;;13.23;;
66626;SDS011;53498;50.422;14.912;2023-02-11T15:48:52;25.25;;;12.75;;
66626;SDS011;53498;50.422;14.912;2023-02-11T15:51:20;20.53;;;12.27;;
66626;SDS011;53498;50.422;14.912;2023-02-11T15:53:51;19.60;;;12.45;;
66626;SDS011;53498;50.422;14.912;2023-02-11T15:56:25;18.30;;;10.90;;
66626;SDS011;53498;50.422;14.912;2023-02-11T15:58:58;18.83;;;10.90;;
66626;SDS011;53498;50.422;14.912;2023-02-11T16:01:29;17.58;;;10.82;;
66626;SDS011;53498;50.422;14.912;2023-02-11T16:03:56;24.33;;;12.27;;
66626;SDS011;53498;50.422;14.912;2023-02-11T16:11:28;22.00;;;12.38;;
66626;SDS011;53498;50.422;14.912;2023-02-11T16:13:59;22.45;;;11.77;;
66626;SDS011;53498;50.422;14.912;2023-02-11T16:16:26;17.70;;;10.45;;
66626;SDS011;53498;50.422;14.912;2023-02-11T16:18:55;21.48;;;12.40;;
66626;SDS011;53498;50.422;14.912;2023-02-11T16:21:26;17.48;;;10.27;;
66626;SDS011;53498;50.422;14.912;2023-02-11T16:23:59;18.85;;;11.60;;
66626;SDS011;53498;50.422;14.912;2023-02-11T16:26:28;19.83;;;10.82;;
66626;SDS011;53498;50.422;14.912;2023-02-11T16:29:03;17.33;;;10.98;;
66626;SDS011;53498;50.422;14.912;2023-02-11T16:32:13;18.38;;;10.02;;
66626;SDS011;53498;50.422;14.912;2023-02-11T16:34:39;21.95;;;11.52;;
66626;SDS011;53498;50.422;14.912;2023-02-11T16:37:05;18.77;;;10.23;;
66626;SDS011;53498;50.422;14.912;2023-02-11T16:39:31;18.70;;;9.70;;
66626;SDS011;53498;50.422;14.912;2023-02-11T16:41:57;18.95;;;10.82;;
66626;SDS011;53498;50.422;14.912;2023-02-11T16:44:23;17.27;;;9.60;;
66626;SDS011;53498;50.422;14.912;2023-02-11T16:46:50;20.23;;;10.70;;
66626;SDS011;53498;50.422;14.912;2023-02-11T16:49:19;21.33;;;10.05;;
66626;SDS011;53498;50.422;14.912;2023-02-11T16:51:51;22.02;;;9.65;;
66626;SDS011;53498;50.422;14.912;2023-02-11T16:54:20;18.88;;;11.55;;
66626;SDS011;53498;50.422;14.912;2023-02-11T16:56:46;22.77;;;11.27;;